Time;durP1;ratioP1;P1;durP2;ratioP2;P2;SDS_P1;SDS_P2;PMS_P1;PMS_P2;Temp;Humidity;BMP_temperature;BMP_pressure;BME280_temperature;BME280_humidity;BME280_pressure;Samples;Min_cycle;Max_cycle;Signal;HPM_P1;HPM_P2
2024/04/19 00:01:20;;;;;;;4.13;1.10;;;;;;;;;;5563638;25;20005;-60
2024/04/19 00:03:46;;;;;;;2.65;0.90;;;;;;;;;;5563632;25;20068;-60
2024/04/19 00:06:12;;;;;;;2.50;1.40;;;;;;;;;;5530783;25;20333;-60
2024/04/19 00:08:38;;;;;;;2.05;1.40;;;;;;;;;;5526540;25;20041;-60
2024/04/19 00:11:04;;;;;;;2.40;1.10;;;;;;;;;;5550019;25;20064;-60
2024/04/19 00:13:30;;;;;;;2.28;1.15;;;;;;;;;;5546817;25;20029;-60
2024/04/19 00:15:57;;;;;;;3.25;1.40;;;;;;;;;;5526799;25;20029;-60
2024/04/19 00:18:24;;;;;;;3.58;1.23;;;;;;;;;;5527457;25;20009;-51
2024/04/19 00:20:50;;;;;;;3.85;1.55;;;;;;;;;;5526512;26;19997;-56
2024/04/19 00:23:16;;;;;;;2.35;1.20;;;;;;;;;;5561183;25;20032;-55
2024/04/19 00:25:42;;;;;;;2.22;1.38;;;;;;;;;;5561820;25;20046;-56
2024/04/19 00:28:08;;;;;;;2.30;1.20;;;;;;;;;;5553797;25;19993;-54
2024/04/19 00:30:34;;;;;;;3.08;1.50;;;;;;;;;;5541806;25;20001;-56
2024/04/19 00:33:00;;;;;;;2.85;1.17;;;;;;;;;;5525424;26;20001;-55
2024/04/19 00:35:26;;;;;;;1.05;0.95;;;;;;;;;;5525797;25;20006;-56
2024/04/19 00:37:52;;;;;;;2.88;1.45;;;;;;;;;;5523922;25;20042;-56
2024/04/19 00:40:18;;;;;;;2.95;1.40;;;;;;;;;;5525610;25;20026;-55
2024/04/19 00:42:44;;;;;;;3.45;1.25;;;;;;;;;;5546313;25;20001;-55
2024/04/19 00:45:29;;;;;;;2.63;1.77;;;;;;;;;;5530231;25;19996;-55
2024/04/19 00:47:56;;;;;;;6.95;1.60;;;;;;;;;;5530815;25;20008;-57
2024/04/19 00:50:22;;;;;;;3.85;1.58;;;;;;;;;;5525760;25;20001;-56
2024/04/19 00:52:48;;;;;;;1.85;1.40;;;;;;;;;;5524919;26;20001;-56
2024/04/19 00:55:14;;;;;;;1.95;1.35;;;;;;;;;;5556397;25;20075;-56
2024/04/19 00:57:40;;;;;;;2.08;1.30;;;;;;;;;;5556771;25;20071;-56
2024/04/19 01:00:07;;;;;;;3.22;1.60;;;;;;;;;;5525509;25;20319;-56
2024/04/19 01:02:34;;;;;;;3.53;1.50;;;;;;;;;;5525405;26;20012;-56
2024/04/19 01:05:00;;;;;;;1.80;1.38;;;;;;;;;;5525859;25;20016;-56
2024/04/19 01:07:26;;;;;;;2.10;1.50;;;;;;;;;;5526012;25;19997;-55
2024/04/19 01:09:52;;;;;;;2.70;1.30;;;;;;;;;;5525903;25;20322;-56
2024/04/19 01:12:18;;;;;;;2.90;1.33;;;;;;;;;;5525336;25;20073;-54
2024/04/19 01:14:44;;;;;;;2.45;1.40;;;;;;;;;;5557372;25;19993;-56
2024/04/19 01:17:10;;;;;;;1.42;1.20;;;;;;;;;;5561746;25;20392;-56
2024/04/19 01:19:36;;;;;;;3.95;1.42;;;;;;;;;;5528437;25;20004;-56
2024/04/19 01:22:03;;;;;;;5.07;1.77;;;;;;;;;;5525211;26;19993;-56
2024/04/19 01:24:36;;;;;;;3.53;1.50;;;;;;;;;;5544220;25;19996;-55
2024/04/19 01:27:02;;;;;;;;;;;;;;;;;;5563476;25;20428;-55
2024/04/19 01:29:28;;;;;;;4.47;1.50;;;;;;;;;;5534911;25;19923;-56
2024/04/19 01:31:54;;;;;;;2.30;1.50;;;;;;;;;;5525432;25;20460;-56
2024/04/19 01:34:20;;;;;;;2.00;1.70;;;;;;;;;;5524517;25;19993;-56
2024/04/19 01:36:46;;;;;;;2.97;1.77;;;;;;;;;;5554117;25;19993;-56
2024/04/19 01:39:12;;;;;;;2.88;1.70;;;;;;;;;;5535295;25;20008;-55
2024/04/19 01:41:38;;;;;;;4.53;2.00;;;;;;;;;;5560540;25;20008;-56
2024/04/19 01:44:04;;;;;;;4.20;1.80;;;;;;;;;;5560458;25;20436;-55
2024/04/19 01:46:30;;;;;;;2.80;1.63;;;;;;;;;;5545559;25;20406;-56
2024/04/19 01:48:56;;;;;;;4.70;1.65;;;;;;;;;;5525294;25;20045;-49
2024/04/19 01:51:22;;;;;;;3.28;1.83;;;;;;;;;;5524942;26;20100;-51
2024/04/19 01:53:48;;;;;;;3.80;2.08;;;;;;;;;;5533747;25;20037;-50
2024/04/19 01:56:14;;;;;;;4.10;1.98;;;;;;;;;;5545873;25;19997;-52
2024/04/19 01:58:40;;;;;;;4.32;1.63;;;;;;;;;;5549574;25;20421;-50
2024/04/19 02:01:06;;;;;;;2.88;1.75;;;;;;;;;;5562461;25;20067;-53
2024/04/19 02:03:32;;;;;;;4.10;1.92;;;;;;;;;;5561578;25;20326;-51
2024/04/19 02:06:06;;;;;;;3.03;1.73;;;;;;;;;;5562079;25;20071;-52
2024/04/19 02:08:32;;;;;;;1.88;1.45;;;;;;;;;;5556256;25;19997;-50
2024/04/19 02:11:00;;;;;;;3.72;1.55;;;;;;;;;;5528633;25;19998;-52
2024/04/19 02:13:26;;;;;;;4.60;1.85;;;;;;;;;;5531513;25;20001;-51
2024/04/19 02:15:52;;;;;;;3.63;1.67;;;;;;;;;;5541295;25;19996;-51
2024/04/19 02:18:18;;;;;;;2.63;1.70;;;;;;;;;;5553984;25;19997;-51
2024/04/19 02:20:44;;;;;;;4.97;2.35;;;;;;;;;;5526571;26;19998;-51
2024/04/19 02:23:10;;;;;;;3.33;1.70;;;;;;;;;;5549328;25;20016;-53
2024/04/19 02:25:36;;;;;;;4.80;1.60;;;;;;;;;;5548473;25;19998;-50
2024/04/19 02:30:55;;;;;;;6.20;2.03;;;;;;;;;;5528811;25;20081;-51
2024/04/19 02:33:21;;;;;;;4.03;2.10;;;;;;;;;;5527659;25;20471;-50
2024/04/19 02:35:47;;;;;;;6.93;1.80;;;;;;;;;;5528140;25;20002;-51
2024/04/19 02:38:13;;;;;;;2.40;1.73;;;;;;;;;;5536727;25;20019;-52
2024/04/19 02:40:39;;;;;;;2.45;1.88;;;;;;;;;;5565376;25;19997;-52
2024/04/19 02:43:05;;;;;;;3.92;1.55;;;;;;;;;;5564607;25;20013;-51
2024/04/19 02:45:31;;;;;;;10.48;2.30;;;;;;;;;;5562888;25;20028;-51
2024/04/19 02:47:57;;;;;;;4.30;1.90;;;;;;;;;;5527988;25;20086;-52
2024/04/19 02:50:23;;;;;;;4.57;1.65;;;;;;;;;;5528184;25;20426;-60
2024/04/19 02:52:49;;;;;;;6.18;2.33;;;;;;;;;;5526966;25;20338;-57
2024/04/19 02:55:15;;;;;;;4.35;1.60;;;;;;;;;;5558594;25;19997;-60
2024/04/19 02:57:41;;;;;;;5.63;1.67;;;;;;;;;;5563878;25;20001;-60
2024/04/19 03:00:07;;;;;;;5.72;1.42;;;;;;;;;;5544382;25;20005;-60
2024/04/19 03:02:33;;;;;;;2.75;1.38;;;;;;;;;;5527266;26;20013;-60
2024/04/19 03:04:59;;;;;;;6.13;1.50;;;;;;;;;;5527262;25;20021;-60
2024/04/19 03:07:25;;;;;;;3.38;1.63;;;;;;;;;;5527373;25;19998;-60
2024/04/19 03:09:51;;;;;;;6.72;2.30;;;;;;;;;;5527510;26;20038;-60
2024/04/19 03:12:17;;;;;;;3.92;1.58;;;;;;;;;;5526824;26;19998;-60
2024/04/19 03:14:46;;;;;;;4.18;1.70;;;;;;;;;;5560636;25;19997;-60
2024/04/19 03:17:12;;;;;;;7.18;1.77;;;;;;;;;;5527893;25;20464;-60
2024/04/19 03:19:38;;;;;;;5.45;1.33;;;;;;;;;;5527690;25;20025;-59
2024/04/19 03:22:04;;;;;;;7.60;2.00;;;;;;;;;;5563974;25;20072;-60
2024/04/19 03:24:30;;;;;;;4.22;1.45;;;;;;;;;;5561494;25;20072;-59
2024/04/19 03:26:56;;;;;;;5.43;1.55;;;;;;;;;;5563329;25;20040;-61
2024/04/19 03:29:22;;;;;;;5.88;1.35;;;;;;;;;;5560089;25;19996;-61
2024/04/19 03:31:48;;;;;;;2.17;1.38;;;;;;;;;;5563724;25;19993;-61
2024/04/19 03:34:14;;;;;;;5.68;1.63;;;;;;;;;;5564080;25;20068;-60
2024/04/19 03:36:40;;;;;;;7.40;1.52;;;;;;;;;;5550192;25;20026;-59
2024/04/19 03:39:08;;;;;;;3.08;1.30;;;;;;;;;;5527042;26;19997;-61
2024/04/19 03:41:37;;;;;;;3.72;1.65;;;;;;;;;;5527466;25;20001;-61
2024/04/19 03:46:48;;;;;;;4.38;1.58;;;;;;;;;;5527233;25;20015;-61
2024/04/19 03:49:14;;;;;;;5.38;1.50;;;;;;;;;;5526582;26;20001;-61
2024/04/19 03:51:40;;;;;;;9.07;1.83;;;;;;;;;;5526990;26;19998;-60
2024/04/19 03:54:06;;;;;;;6.85;1.40;;;;;;;;;;5540210;25;20008;-61
2024/04/19 03:56:32;;;;;;;5.53;1.70;;;;;;;;;;5562313;25;20000;-59
2024/04/19 03:58:58;;;;;;;6.95;1.85;;;;;;;;;;5553477;25;20002;-55
2024/04/19 04:01:24;;;;;;;3.33;1.60;;;;;;;;;;5526674;26;20011;-56
2024/04/19 04:03:53;;;;;;;10.40;2.28;;;;;;;;;;5537560;25;19993;-56
2024/04/19 04:06:19;;;;;;;4.13;1.40;;;;;;;;;;5556484;25;20333;-56
2024/04/19 04:08:48;;;;;;;5.53;1.58;;;;;;;;;;5545084;25;19997;-59
2024/04/19 04:11:14;;;;;;;9.10;1.77;;;;;;;;;;5551237;25;20037;-59
2024/04/19 04:13:40;;;;;;;4.80;1.75;;;;;;;;;;5538085;25;20071;-57
2024/04/19 04:16:06;;;;;;;8.18;1.80;;;;;;;;;;5554316;25;20024;-59
2024/04/19 04:18:32;;;;;;;7.03;1.88;;;;;;;;;;5561590;25;20101;-57
2024/04/19 04:20:58;;;;;;;5.97;2.00;;;;;;;;;;5549524;25;19996;-60
2024/04/19 04:23:24;;;;;;;8.13;1.90;;;;;;;;;;5551967;25;20011;-59
2024/04/19 04:25:50;;;;;;;4.85;1.70;;;;;;;;;;5538590;25;20049;-60
2024/04/19 04:28:16;;;;;;;5.63;1.95;;;;;;;;;;5552130;25;20088;-60
2024/04/19 04:30:42;;;;;;;4.47;2.08;;;;;;;;;;5557847;25;19993;-60
2024/04/19 04:33:08;;;;;;;6.63;2.30;;;;;;;;;;5536458;25;20024;-60
2024/04/19 04:35:36;;;;;;;6.13;2.00;;;;;;;;;;5538438;25;19999;-60
2024/04/19 04:38:02;;;;;;;4.82;1.92;;;;;;;;;;5558147;25;20053;-60
2024/04/19 04:40:28;;;;;;;4.55;1.77;;;;;;;;;;5529620;25;20444;-60
2024/04/19 04:42:54;;;;;;;7.80;1.95;;;;;;;;;;5561343;25;20465;-59
2024/04/19 04:45:20;;;;;;;6.07;2.08;;;;;;;;;;5551446;25;20024;-59
2024/04/19 04:47:46;;;;;;;6.90;2.00;;;;;;;;;;5528068;25;20010;-59
2024/04/19 04:50:13;;;;;;;7.15;2.00;;;;;;;;;;5543137;25;19997;-59
2024/04/19 04:52:39;;;;;;;5.43;2.35;;;;;;;;;;5550170;25;19998;-59
2024/04/19 04:55:05;;;;;;;7.07;2.72;;;;;;;;;;5548780;25;20104;-58
2024/04/19 04:57:31;;;;;;;4.50;1.92;;;;;;;;;;5533578;25;20001;-59
2024/04/19 04:59:57;;;;;;;9.88;2.22;;;;;;;;;;5530875;25;20073;-56
2024/04/19 05:02:23;;;;;;;6.57;2.47;;;;;;;;;;5532505;25;20041;-58
2024/04/19 05:04:49;;;;;;;4.10;2.25;;;;;;;;;;5538238;25;20009;-59
2024/04/19 05:07:15;;;;;;;7.57;2.33;;;;;;;;;;5531503;25;19997;-59
2024/04/19 05:09:41;;;;;;;4.53;2.25;;;;;;;;;;5529152;25;20336;-60
2024/04/19 05:12:08;;;;;;;4.18;2.45;;;;;;;;;;5542737;25;20028;-58
2024/04/19 05:14:34;;;;;;;5.63;2.60;;;;;;;;;;5535270;25;20457;-59
2024/04/19 05:17:00;;;;;;;8.30;2.85;;;;;;;;;;5535261;25;20076;-59
2024/04/19 05:19:26;;;;;;;9.68;2.58;;;;;;;;;;5525229;25;20414;-53
2024/04/19 05:21:52;;;;;;;8.43;3.03;;;;;;;;;;5531736;25;20000;-51
2024/04/19 05:24:18;;;;;;;9.27;3.53;;;;;;;;;;5545928;25;20922;-51
2024/04/19 05:26:44;;;;;;;5.85;3.10;;;;;;;;;;5544247;25;20090;-52
2024/04/19 05:29:10;;;;;;;5.82;2.80;;;;;;;;;;5533540;25;20007;-51
2024/04/19 05:31:36;;;;;;;9.57;3.25;;;;;;;;;;5541939;25;19997;-54
2024/04/19 05:34:02;;;;;;;5.13;3.05;;;;;;;;;;5529668;25;19997;-50
2024/04/19 05:36:28;;;;;;;8.27;3.03;;;;;;;;;;5532925;25;20073;-52
2024/04/19 05:38:54;;;;;;;8.98;2.60;;;;;;;;;;5558115;25;20007;-52
2024/04/19 05:41:20;;;;;;;8.35;2.85;;;;;;;;;;5559454;25;20524;-52
2024/04/19 05:43:46;;;;;;;9.15;3.53;;;;;;;;;;5545392;25;20012;-52
2024/04/19 05:46:13;;;;;;;7.55;3.20;;;;;;;;;;5545051;25;20041;-50
2024/04/19 05:48:39;;;;;;;5.45;2.47;;;;;;;;;;5561385;25;20012;-50
2024/04/19 05:51:05;;;;;;;9.13;3.10;;;;;;;;;;5560757;25;20007;-53
2024/04/19 05:53:31;;;;;;;4.32;2.45;;;;;;;;;;5555733;25;19997;-52
2024/04/19 05:55:57;;;;;;;19.60;3.10;;;;;;;;;;5528561;25;19997;-52
2024/04/19 05:58:24;;;;;;;7.80;3.08;;;;;;;;;;5539627;25;20001;-53
2024/04/19 06:00:50;;;;;;;3.83;2.60;;;;;;;;;;5543753;25;20061;-51
2024/04/19 06:03:16;;;;;;;8.23;2.60;;;;;;;;;;5560292;25;20444;-52
2024/04/19 06:05:44;;;;;;;5.30;2.42;;;;;;;;;;5545718;25;19998;-50
2024/04/19 06:08:12;;;;;;;5.35;2.60;;;;;;;;;;5551860;25;20004;-52
2024/04/19 06:10:38;;;;;;;5.25;2.70;;;;;;;;;;5560603;25;20012;-52
2024/04/19 06:13:04;;;;;;;3.35;2.30;;;;;;;;;;5559641;25;19997;-50
2024/04/19 06:15:30;;;;;;;7.65;2.80;;;;;;;;;;5559902;25;20068;-51
2024/04/19 06:17:56;;;;;;;4.03;2.53;;;;;;;;;;5560629;25;20436;-53
2024/04/19 06:20:22;;;;;;;9.27;2.42;;;;;;;;;;5560619;25;20516;-59
2024/04/19 06:22:49;;;;;;;5.75;3.42;;;;;;;;;;5559804;25;19993;-60
2024/04/19 06:25:15;;;;;;;4.57;2.58;;;;;;;;;;5545141;25;20031;-59
2024/04/19 06:27:40;;;;;;;5.35;2.50;;;;;;;;;;5560333;25;19992;-60
2024/04/19 06:30:07;;;;;;;5.43;3.05;;;;;;;;;;5559129;25;19997;-50
2024/04/19 06:32:33;;;;;;;6.65;3.47;;;;;;;;;;5534206;25;20109;-53
2024/04/19 06:34:59;;;;;;;7.03;3.47;;;;;;;;;;5560223;25;20007;-52
2024/04/19 06:37:25;;;;;;;8.57;3.80;;;;;;;;;;5560206;25;19992;-50
2024/04/19 06:39:51;;;;;;;4.85;3.13;;;;;;;;;;5559916;25;19993;-52
2024/04/19 06:42:17;;;;;;;7.75;4.47;;;;;;;;;;5559624;25;20474;-50
2024/04/19 06:44:43;;;;;;;7.20;3.30;;;;;;;;;;5560027;25;20020;-55
2024/04/19 06:47:09;;;;;;;7.20;3.22;;;;;;;;;;5558356;25;20008;-52
2024/04/19 06:49:35;;;;;;;6.13;2.72;;;;;;;;;;5540021;25;20452;-53
2024/04/19 06:52:01;;;;;;;6.25;3.20;;;;;;;;;;5559686;25;20044;-54
2024/04/19 06:54:27;;;;;;;6.30;3.40;;;;;;;;;;5563350;25;20068;-55
2024/04/19 06:56:53;;;;;;;5.53;2.40;;;;;;;;;;5563425;25;20098;-53
2024/04/19 06:59:19;;;;;;;6.45;3.25;;;;;;;;;;5554547;25;20100;-51
2024/04/19 07:01:45;;;;;;;4.40;3.00;;;;;;;;;;5562900;25;19996;-52
2024/04/19 07:04:12;;;;;;;5.90;2.85;;;;;;;;;;5563177;25;20001;-51
2024/04/19 07:06:38;;;;;;;6.82;3.25;;;;;;;;;;5538583;25;20027;-53
2024/04/19 07:09:04;;;;;;;9.23;3.38;;;;;;;;;;5563302;25;20021;-53
2024/04/19 07:11:30;;;;;;;8.48;3.05;;;;;;;;;;5563188;25;20061;-53
2024/04/19 07:13:56;;;;;;;5.78;3.30;;;;;;;;;;5563103;25;20060;-52
2024/04/19 07:16:22;;;;;;;6.03;2.90;;;;;;;;;;5560761;25;20433;-52
2024/04/19 07:18:48;;;;;;;6.82;3.47;;;;;;;;;;5546555;25;20354;-50
2024/04/19 07:21:14;;;;;;;9.10;3.28;;;;;;;;;;5543392;25;20333;-53
2024/04/19 07:23:40;;;;;;;9.35;3.05;;;;;;;;;;5555081;25;19997;-53
2024/04/19 07:26:06;;;;;;;6.53;3.35;;;;;;;;;;5556344;25;20495;-53
2024/04/19 07:28:32;;;;;;;7.30;3.13;;;;;;;;;;5563605;25;20850;-59
2024/04/19 07:31:00;;;;;;;5.72;2.80;;;;;;;;;;5562900;25;20021;-59
2024/04/19 07:33:26;;;;;;;4.88;3.13;;;;;;;;;;5544276;25;19997;-59
2024/04/19 07:35:52;;;;;;;4.28;2.72;;;;;;;;;;5556316;25;20069;-59
2024/04/19 07:38:18;;;;;;;5.93;3.03;;;;;;;;;;5544728;25;20080;-59
2024/04/19 07:40:44;;;;;;;4.55;3.17;;;;;;;;;;5562748;25;20008;-59
2024/04/19 07:43:10;;;;;;;11.68;3.25;;;;;;;;;;5562697;25;20076;-59
2024/04/19 07:45:37;;;;;;;5.45;3.00;;;;;;;;;;5548350;25;20448;-59
2024/04/19 07:48:03;;;;;;;4.55;3.20;;;;;;;;;;5554595;25;20011;-60
2024/04/19 07:50:29;;;;;;;4.68;3.40;;;;;;;;;;5562678;25;19997;-60
2024/04/19 07:52:55;;;;;;;10.40;3.70;;;;;;;;;;5562325;25;20007;-60
2024/04/19 07:55:21;;;;;;;6.82;3.67;;;;;;;;;;5561893;25;20029;-60
2024/04/19 07:57:47;;;;;;;5.18;3.38;;;;;;;;;;5560544;25;20033;-60
2024/04/19 08:00:16;;;;;;;5.07;3.38;;;;;;;;;;5532366;25;20008;-60
2024/04/19 08:02:42;;;;;;;4.80;3.15;;;;;;;;;;5542639;25;20426;-59
2024/04/19 08:05:08;;;;;;;5.40;3.85;;;;;;;;;;5551194;25;20017;-59
2024/04/19 08:07:35;;;;;;;5.28;3.58;;;;;;;;;;5544203;25;20008;-60
2024/04/19 08:10:01;;;;;;;4.88;3.50;;;;;;;;;;5535566;25;20001;-60
2024/04/19 08:12:27;;;;;;;5.38;3.33;;;;;;;;;;5562152;25;19997;-60
2024/04/19 08:14:53;;;;;;;5.30;3.78;;;;;;;;;;5562561;25;20001;-60
2024/04/19 08:17:19;;;;;;;8.38;4.20;;;;;;;;;;5554101;25;20005;-59
2024/04/19 08:19:45;;;;;;;6.50;3.42;;;;;;;;;;5531912;25;20405;-60
2024/04/19 08:22:11;;;;;;;9.88;3.92;;;;;;;;;;5561770;25;20001;-59
2024/04/19 08:24:37;;;;;;;7.63;3.55;;;;;;;;;;5544665;25;20008;-60
2024/04/19 08:27:03;;;;;;;5.32;3.33;;;;;;;;;;5562521;25;20460;-60
2024/04/19 08:29:32;;;;;;;5.50;3.67;;;;;;;;;;5562267;25;20003;-60
2024/04/19 08:31:58;;;;;;;4.45;3.30;;;;;;;;;;5562390;25;20041;-60
2024/04/19 08:34:24;;;;;;;6.20;3.60;;;;;;;;;;5557595;25;20412;-59
2024/04/19 08:36:50;;;;;;;6.18;3.70;;;;;;;;;;5561949;25;20660;-60
2024/04/19 08:39:15;;;;;;;5.53;3.83;;;;;;;;;;5562581;25;20022;-52
2024/04/19 08:41:42;;;;;;;7.40;3.75;;;;;;;;;;5562184;25;20002;-52
2024/04/19 08:44:08;;;;;;;4.90;3.58;;;;;;;;;;5536702;25;19997;-51
2024/04/19 08:46:36;;;;;;;5.70;3.45;;;;;;;;;;5562121;25;20007;-52
2024/04/19 08:49:03;;;;;;;5.38;3.72;;;;;;;;;;5543167;25;20016;-57
2024/04/19 08:51:33;;;;;;;7.22;3.70;;;;;;;;;;5540828;25;20473;-57
2024/04/19 08:53:59;;;;;;;9.35;4.20;;;;;;;;;;5557053;25;20086;-57
2024/04/19 08:56:25;;;;;;;9.95;4.03;;;;;;;;;;5556733;25;22224;-56
2024/04/19 08:58:56;;;;;;;10.82;4.22;;;;;;;;;;5561683;25;20029;-57
2024/04/19 09:01:22;;;;;;;5.55;3.78;;;;;;;;;;5561909;25;20000;-57
2024/04/19 09:03:49;;;;;;;9.10;4.35;;;;;;;;;;5558772;25;20068;-57
2024/04/19 09:06:15;;;;;;;9.13;4.75;;;;;;;;;;5538248;25;20437;-57
2024/04/19 09:08:41;;;;;;;5.18;3.90;;;;;;;;;;5558662;25;20024;-57
2024/04/19 09:11:11;;;;;;;6.35;4.53;;;;;;;;;;5561013;25;19997;-56
2024/04/19 09:13:37;;;;;;;9.63;4.65;;;;;;;;;;5558226;25;20084;-57
2024/04/19 09:16:03;;;;;;;9.50;4.47;;;;;;;;;;5561582;25;20000;-57
2024/04/19 09:18:29;;;;;;;7.05;4.18;;;;;;;;;;5543921;25;20001;-56
2024/04/19 09:20:55;;;;;;;6.20;3.75;;;;;;;;;;5548716;25;19997;-56
2024/04/19 09:23:21;;;;;;;7.28;3.72;;;;;;;;;;5558790;25;20014;-56
2024/04/19 09:25:54;;;;;;;8.82;4.40;;;;;;;;;;5538142;25;19993;-57
2024/04/19 09:28:20;;;;;;;6.13;3.97;;;;;;;;;;5548217;25;20012;-56
2024/04/19 09:30:46;;;;;;;5.30;3.95;;;;;;;;;;5560941;25;20068;-56
2024/04/19 09:33:18;;;;;;;8.65;4.35;;;;;;;;;;5557909;25;19996;-57
2024/04/19 09:35:44;;;;;;;6.90;3.78;;;;;;;;;;5561247;25;20008;-56
2024/04/19 09:38:10;;;;;;;5.97;3.20;;;;;;;;;;5561420;25;19996;-57
2024/04/19 09:40:36;;;;;;;6.00;4.05;;;;;;;;;;5561179;25;20001;-57
2024/04/19 09:43:06;;;;;;;5.30;4.00;;;;;;;;;;5560755;25;19997;-57
2024/04/19 09:45:35;;;;;;;6.40;3.92;;;;;;;;;;5560902;25;20000;-56
2024/04/19 09:48:02;;;;;;;8.05;4.10;;;;;;;;;;5557311;25;20017;-60
2024/04/19 09:50:33;;;;;;;7.55;4.22;;;;;;;;;;5552338;25;20466;-57
2024/04/19 09:53:00;;;;;;;7.07;3.72;;;;;;;;;;5557726;25;20041;-57
2024/04/19 09:55:30;;;;;;;6.15;3.42;;;;;;;;;;5557379;25;20005;-57
2024/04/19 09:57:56;;;;;;;4.85;3.60;;;;;;;;;;5560486;25;20078;-57
2024/04/19 10:00:28;;;;;;;4.68;2.85;;;;;;;;;;5553784;25;20009;-60
2024/04/19 10:02:55;;;;;;;4.30;2.78;;;;;;;;;;5542278;25;20449;-60
2024/04/19 10:05:22;;;;;;;3.03;2.40;;;;;;;;;;5550805;25;20456;-60
2024/04/19 10:07:49;;;;;;;2.80;2.10;;;;;;;;;;5545941;25;20008;-60
2024/04/19 10:10:15;;;;;;;2.53;2.28;;;;;;;;;;5551478;25;20016;-60
2024/04/19 10:12:41;;;;;;;3.38;2.03;;;;;;;;;;5527140;25;20009;-61
2024/04/19 10:15:11;;;;;;;6.63;3.38;;;;;;;;;;5558868;25;19997;-60
2024/04/19 10:17:37;;;;;;;3.88;2.72;;;;;;;;;;5542945;25;20104;-60
2024/04/19 10:20:03;;;;;;;4.50;2.90;;;;;;;;;;5560417;25;19992;-60
2024/04/19 10:22:30;;;;;;;8.32;2.70;;;;;;;;;;5560145;25;20321;-60
2024/04/19 10:24:59;;;;;;;4.75;3.45;;;;;;;;;;5545705;25;20032;-59
2024/04/19 10:27:27;;;;;;;3.75;2.53;;;;;;;;;;5563463;25;20005;-59
2024/04/19 10:29:53;;;;;;;3.65;2.67;;;;;;;;;;5564212;25;20445;-60
2024/04/19 10:32:19;;;;;;;3.85;2.85;;;;;;;;;;5563155;25;20008;-60
2024/04/19 10:34:45;;;;;;;4.75;3.00;;;;;;;;;;5562034;25;20437;-61
2024/04/19 10:37:12;;;;;;;3.42;2.55;;;;;;;;;;5561328;25;19997;-60
2024/04/19 10:39:38;;;;;;;3.85;2.40;;;;;;;;;;5563905;25;20065;-60
2024/04/19 10:42:04;;;;;;;4.47;2.97;;;;;;;;;;5563850;25;20071;-58
2024/04/19 10:44:31;;;;;;;4.25;3.03;;;;;;;;;;5563549;25;20012;-60
2024/04/19 10:46:57;;;;;;;3.53;2.38;;;;;;;;;;5563778;25;20015;-61
2024/04/19 10:49:24;;;;;;;7.68;2.42;;;;;;;;;;5562564;25;20340;-61
2024/04/19 10:51:51;;;;;;;4.90;2.58;;;;;;;;;;5563828;25;19993;-60
2024/04/19 10:54:17;;;;;;;6.22;2.15;;;;;;;;;;5561012;25;19993;-59
2024/04/19 10:56:43;;;;;;;3.65;2.28;;;;;;;;;;5563730;25;20504;-60
2024/04/19 10:59:09;;;;;;;2.75;1.90;;;;;;;;;;5563597;25;20009;-60
2024/04/19 11:01:38;;;;;;;3.47;1.85;;;;;;;;;;5561789;25;20020;-60
2024/04/19 11:04:04;;;;;;;5.47;1.40;;;;;;;;;;5549871;25;20393;-61
2024/04/19 11:06:30;;;;;;;1.20;0.90;;;;;;;;;;5541073;25;20471;-60
2024/04/19 11:08:56;;;;;;;2.83;1.13;;;;;;;;;;5558536;25;19996;-53
2024/04/19 11:11:22;;;;;;;1.83;0.80;;;;;;;;;;5561314;25;19997;-51
2024/04/19 11:13:48;;;;;;;5.15;0.75;;;;;;;;;;5562975;25;20460;-53
2024/04/19 11:16:14;;;;;;;2.25;1.10;;;;;;;;;;5547517;25;19997;-52
2024/04/19 11:18:40;;;;;;;0.70;0.70;;;;;;;;;;5559224;25;20476;-53
2024/04/19 11:21:06;;;;;;;1.05;0.90;;;;;;;;;;5562972;25;19993;-54
2024/04/19 11:23:32;;;;;;;0.70;0.60;;;;;;;;;;5557779;25;20027;-50
2024/04/19 11:25:58;;;;;;;1.13;0.80;;;;;;;;;;5551967;25;19996;-48
2024/04/19 11:28:24;;;;;;;0.93;0.70;;;;;;;;;;5563104;25;20366;-52
2024/04/19 11:30:50;;;;;;;1.08;0.70;;;;;;;;;;5561085;25;20007;-52
2024/04/19 11:33:16;;;;;;;0.85;0.80;;;;;;;;;;5545874;25;20004;-52
2024/04/19 11:35:42;;;;;;;0.82;0.65;;;;;;;;;;5562906;25;20028;-55
2024/04/19 11:38:13;;;;;;;1.00;0.70;;;;;;;;;;5561005;25;20011;-55
2024/04/19 11:40:39;;;;;;;1.50;0.80;;;;;;;;;;5560565;25;20441;-54
2024/04/19 11:43:05;;;;;;;0.60;0.50;;;;;;;;;;5540145;25;20453;-56
2024/04/19 11:45:31;;;;;;;1.83;0.80;;;;;;;;;;5563092;25;20011;-50
2024/04/19 11:47:58;;;;;;;0.60;0.50;;;;;;;;;;5562264;25;19997;-52
2024/04/19 11:50:25;;;;;;;0.90;0.60;;;;;;;;;;5562643;25;20032;-53
2024/04/19 11:52:51;;;;;;;0.70;0.50;;;;;;;;;;5554811;25;20437;-53
2024/04/19 11:55:18;;;;;;;0.60;0.52;;;;;;;;;;5561287;25;20472;-52
2024/04/19 11:57:44;;;;;;;1.23;0.50;;;;;;;;;;5562938;25;20015;-50
2024/04/19 12:00:10;;;;;;;1.40;0.70;;;;;;;;;;5562326;25;20352;-54
2024/04/19 12:02:36;;;;;;;0.70;0.50;;;;;;;;;;5554737;25;20057;-53
2024/04/19 12:05:02;;;;;;;2.22;0.70;;;;;;;;;;5534681;25;19997;-53
2024/04/19 12:07:28;;;;;;;4.93;0.93;;;;;;;;;;5539844;25;20011;-53
2024/04/19 12:09:54;;;;;;;0.80;0.50;;;;;;;;;;5538657;25;20398;-60
2024/04/19 12:12:21;;;;;;;0.40;0.40;;;;;;;;;;5542335;25;20046;-61
2024/04/19 12:14:48;;;;;;;1.38;0.57;;;;;;;;;;5548876;25;20113;-61
2024/04/19 12:17:14;;;;;;;0.90;0.60;;;;;;;;;;5543670;25;20011;-60
2024/04/19 12:19:40;;;;;;;1.00;0.80;;;;;;;;;;5551830;25;20020;-58
2024/04/19 12:22:07;;;;;;;0.57;0.50;;;;;;;;;;5559706;25;20000;-61
2024/04/19 12:24:34;;;;;;;0.82;0.40;;;;;;;;;;5557809;25;20453;-60
2024/04/19 12:27:04;;;;;;;3.33;0.50;;;;;;;;;;5553785;25;20004;-60
2024/04/19 12:29:30;;;;;;;0.60;0.47;;;;;;;;;;5554682;25;20011;-61
2024/04/19 12:31:56;;;;;;;1.95;0.82;;;;;;;;;;5558665;25;19996;-59
2024/04/19 12:34:22;;;;;;;1.08;0.50;;;;;;;;;;5542028;25;22061;-61
2024/04/19 12:36:48;;;;;;;1.35;0.80;;;;;;;;;;5541201;25;20012;-59
2024/04/19 12:39:14;;;;;;;0.63;0.63;;;;;;;;;;5539654;25;20001;-61
2024/04/19 12:41:41;;;;;;;1.77;0.60;;;;;;;;;;5545429;25;20016;-60
2024/04/19 12:44:07;;;;;;;1.77;0.82;;;;;;;;;;5547190;25;20008;-61
2024/04/19 12:46:34;;;;;;;0.68;0.68;;;;;;;;;;5523972;25;20012;-60
2024/04/19 12:49:07;;;;;;;1.38;0.73;;;;;;;;;;5545705;25;20451;-60
2024/04/19 12:51:34;;;;;;;0.98;0.82;;;;;;;;;;5535237;25;19998;-61
2024/04/19 12:54:00;;;;;;;1.02;0.80;;;;;;;;;;5530526;25;19993;-61
2024/04/19 12:56:26;;;;;;;1.08;0.80;;;;;;;;;;5539279;25;19993;-62
2024/04/19 12:58:53;;;;;;;0.70;0.50;;;;;;;;;;5537021;25;20002;-57
2024/04/19 13:01:19;;;;;;;1.23;0.80;;;;;;;;;;5532644;25;20438;-59
2024/04/19 13:03:45;;;;;;;1.35;0.70;;;;;;;;;;5550704;25;20533;-60
2024/04/19 13:06:11;;;;;;;0.85;0.70;;;;;;;;;;5543531;25;20337;-61
2024/04/19 13:08:37;;;;;;;1.15;0.70;;;;;;;;;;5561703;25;20012;-61
2024/04/19 13:11:03;;;;;;;0.93;0.80;;;;;;;;;;5552294;25;20452;-61
2024/04/19 13:13:46;;;;;;;2.15;0.88;;;;;;;;;;5535189;25;19993;-61
2024/04/19 13:16:12;;;;;;;1.20;0.90;;;;;;;;;;5551216;25;20096;-59
2024/04/19 13:18:38;;;;;;;3.03;1.00;;;;;;;;;;5546109;25;20496;-60
2024/04/19 13:21:04;;;;;;;1.35;1.00;;;;;;;;;;5553401;25;20019;-60
2024/04/19 13:23:30;;;;;;;2.70;0.63;;;;;;;;;;5548342;25;20010;-61
2024/04/19 13:25:56;;;;;;;1.10;0.90;;;;;;;;;;5546663;25;20033;-60
2024/04/19 13:28:22;;;;;;;1.00;0.80;;;;;;;;;;5541421;25;20001;-62
2024/04/19 13:30:48;;;;;;;1.75;0.80;;;;;;;;;;5543032;25;19993;-61
2024/04/19 13:33:14;;;;;;;1.30;1.00;;;;;;;;;;5535430;25;20052;-61
2024/04/19 13:35:40;;;;;;;0.75;0.70;;;;;;;;;;5550553;25;19997;-61
2024/04/19 13:38:06;;;;;;;2.45;0.98;;;;;;;;;;5556975;25;19997;-61
2024/04/19 13:40:32;;;;;;;1.50;0.80;;;;;;;;;;5561026;25;20445;-61
2024/04/19 13:43:00;;;;;;;0.85;0.70;;;;;;;;;;5560052;25;20011;-60
2024/04/19 13:45:26;;;;;;;0.75;0.55;;;;;;;;;;5557553;25;19997;-61
2024/04/19 13:47:52;;;;;;;0.82;0.63;;;;;;;;;;5539456;25;20441;-61
2024/04/19 13:50:18;;;;;;;0.65;0.50;;;;;;;;;;5538878;25;20390;-61
2024/04/19 13:52:44;;;;;;;1.40;0.70;;;;;;;;;;5540183;25;20000;-62
2024/04/19 13:55:10;;;;;;;1.77;0.45;;;;;;;;;;5558816;25;20449;-61
2024/04/19 13:57:36;;;;;;;2.88;0.60;;;;;;;;;;5557820;25;20385;-62
2024/04/19 14:00:04;;;;;;;0.98;0.50;;;;;;;;;;5552238;25;19989;-62
2024/04/19 14:02:30;;;;;;;2.88;0.50;;;;;;;;;;5559822;25;20028;-61
2024/04/19 14:04:56;;;;;;;0.60;0.40;;;;;;;;;;5555385;25;20072;-61
2024/04/19 14:07:22;;;;;;;0.40;0.30;;;;;;;;;;5540554;25;20025;-62
2024/04/19 14:09:48;;;;;;;0.88;0.60;;;;;;;;;;5545178;25;20093;-62
2024/04/19 14:12:14;;;;;;;1.15;0.35;;;;;;;;;;5552075;25;19997;-62
2024/04/19 14:14:39;;;;;;;1.10;0.63;;;;;;;;;;5554720;25;20015;-60
2024/04/19 14:17:05;;;;;;;1.80;0.80;;;;;;;;;;5560672;25;20474;-62
2024/04/19 14:19:33;;;;;;;0.82;0.60;;;;;;;;;;5557256;25;20306;-61
2024/04/19 14:21:59;;;;;;;1.42;0.60;;;;;;;;;;5537594;25;19992;-60
2024/04/19 14:24:25;;;;;;;0.98;0.70;;;;;;;;;;5559731;25;19993;-61
2024/04/19 14:26:51;;;;;;;0.88;0.52;;;;;;;;;;5560523;25;20064;-61
2024/04/19 14:29:17;;;;;;;2.65;0.70;;;;;;;;;;5557380;25;20348;-58
2024/04/19 14:31:43;;;;;;;0.60;0.60;;;;;;;;;;5546928;25;20006;-60
2024/04/19 14:34:09;;;;;;;2.05;0.80;;;;;;;;;;5547645;25;20375;-61
2024/04/19 14:36:35;;;;;;;1.88;1.05;;;;;;;;;;5560304;25;20000;-61
2024/04/19 14:39:01;;;;;;;4.30;1.08;;;;;;;;;;5560341;25;20001;-55
2024/04/19 14:41:30;;;;;;;2.90;1.17;;;;;;;;;;5560138;25;20001;-53
2024/04/19 14:43:56;;;;;;;1.48;1.00;;;;;;;;;;5559731;25;20401;-54